sensor_id;sensor_type;location;lat;lon;timestamp;pressure;altitude;pressure_sealevel;temperature;humidity
39275;BME280;24980;48.874;2.332;2023-05-07T00:00:49;101020.62;;;25.16;48.18
39275;BME280;24980;48.874;2.332;2023-05-07T00:03:19;101018.02;;;25.18;48.18
39275;BME280;24980;48.874;2.332;2023-05-07T00:05:49;101015.58;;;25.21;48.17
39275;BME280;24980;48.874;2.332;2023-05-07T00:08:20;101014.89;;;25.22;48.17
39275;BME280;24980;48.874;2.332;2023-05-07T00:10:50;101011.81;;;25.23;48.18
39275;BME280;24980;48.874;2.332;2023-05-07T00:13:20;101004.63;;;25.25;48.18
39275;BME280;24980;48.874;2.332;2023-05-07T00:15:50;101002.32;;;25.26;48.18
39275;BME280;24980;48.874;2.332;2023-05-07T00:18:20;101005.41;;;25.28;48.18
39275;BME280;24980;48.874;2.332;2023-05-07T00:20:51;101010.30;;;25.30;48.17
39275;BME280;24980;48.874;2.332;2023-05-07T00:23:23;101015.41;;;25.32;48.16
39275;BME280;24980;48.874;2.332;2023-05-07T00:28:22;101012.87;;;25.35;48.15
39275;BME280;24980;48.874;2.332;2023-05-07T00:30:52;101017.91;;;25.37;48.17
39275;BME280;24980;48.874;2.332;2023-05-07T00:33:23;101013.14;;;25.38;48.18
39275;BME280;24980;48.874;2.332;2023-05-07T00:35:53;101014.47;;;25.39;48.19
39275;BME280;24980;48.874;2.332;2023-05-07T00:38:24;101021.90;;;25.40;48.20
39275;BME280;24980;48.874;2.332;2023-05-07T00:40:54;101021.38;;;25.40;48.23
39275;BME280;24980;48.874;2.332;2023-05-07T00:43:24;101020.69;;;25.41;48.25
39275;BME280;24980;48.874;2.332;2023-05-07T00:45:54;101014.66;;;25.42;48.26
39275;BME280;24980;48.874;2.332;2023-05-07T00:48:25;101011.76;;;25.42;48.27
39275;BME280;24980;48.874;2.332;2023-05-07T00:50:56;101008.48;;;25.43;48.29
39275;BME280;24980;48.874;2.332;2023-05-07T00:53:27;101006.44;;;25.44;48.30
39275;BME280;24980;48.874;2.332;2023-05-07T00:55:57;101008.20;;;25.45;48.31
39275;BME280;24980;48.874;2.332;2023-05-07T00:58:36;101007.59;;;25.46;48.33
39275;BME280;24980;48.874;2.332;2023-05-07T01:00:58;101002.85;;;25.46;48.32
39275;BME280;24980;48.874;2.332;2023-05-07T01:03:28;101005.85;;;25.47;48.33
39275;BME280;24980;48.874;2.332;2023-05-07T01:05:59;101006.88;;;25.47;48.33
39275;BME280;24980;48.874;2.332;2023-05-07T01:08:30;101002.29;;;25.47;48.31
39275;BME280;24980;48.874;2.332;2023-05-07T01:11:01;101000.66;;;25.48;48.30
39275;BME280;24980;48.874;2.332;2023-05-07T01:13:31;101002.09;;;25.49;48.29
39275;BME280;24980;48.874;2.332;2023-05-07T01:16:00;100995.41;;;25.49;48.26
39275;BME280;24980;48.874;2.332;2023-05-07T01:18:34;100994.78;;;25.50;48.26
39275;BME280;24980;48.874;2.332;2023-05-07T01:21:04;100985.52;;;25.50;48.25
39275;BME280;24980;48.874;2.332;2023-05-07T01:23:33;100983.22;;;25.50;48.26
39275;BME280;24980;48.874;2.332;2023-05-07T01:26:03;100987.45;;;25.51;48.23
39275;BME280;24980;48.874;2.332;2023-05-07T01:28:34;100989.75;;;25.51;48.23
39275;BME280;24980;48.874;2.332;2023-05-07T01:31:11;100986.38;;;25.53;48.23
39275;BME280;24980;48.874;2.332;2023-05-07T01:33:37;100987.78;;;25.52;48.23
39275;BME280;24980;48.874;2.332;2023-05-07T01:36:04;100989.56;;;25.52;48.23
39275;BME280;24980;48.874;2.332;2023-05-07T01:38:35;100981.03;;;25.53;48.23
39275;BME280;24980;48.874;2.332;2023-05-07T01:41:05;100982.38;;;25.54;48.23
39275;BME280;24980;48.874;2.332;2023-05-07T01:43:35;100986.02;;;25.55;48.25
39275;BME280;24980;48.874;2.332;2023-05-07T01:46:05;100984.98;;;25.55;48.28
39275;BME280;24980;48.874;2.332;2023-05-07T01:48:37;100984.98;;;25.56;48.33
39275;BME280;24980;48.874;2.332;2023-05-07T01:51:08;100986.12;;;25.57;48.37
39275;BME280;24980;48.874;2.332;2023-05-07T01:53:38;100986.02;;;25.57;48.37
39275;BME280;24980;48.874;2.332;2023-05-07T01:56:08;100992.30;;;25.57;48.36
39275;BME280;24980;48.874;2.332;2023-05-07T01:58:38;100991.53;;;25.58;48.33
39275;BME280;24980;48.874;2.332;2023-05-07T02:01:08;100991.28;;;25.57;48.30
39275;BME280;24980;48.874;2.332;2023-05-07T02:03:47;100991.19;;;25.58;48.28
39275;BME280;24980;48.874;2.332;2023-05-07T02:06:09;100989.34;;;25.57;48.26
39275;BME280;24980;48.874;2.332;2023-05-07T02:08:39;100986.62;;;25.57;48.23
39275;BME280;24980;48.874;2.332;2023-05-07T02:11:09;100983.73;;;25.57;48.22
39275;BME280;24980;48.874;2.332;2023-05-07T02:13:39;100985.18;;;25.57;48.19
39275;BME280;24980;48.874;2.332;2023-05-07T02:16:09;100988.64;;;25.58;48.17
39275;BME280;24980;48.874;2.332;2023-05-07T02:18:39;100990.50;;;25.58;48.15
39275;BME280;24980;48.874;2.332;2023-05-07T02:21:09;100991.52;;;25.58;48.13
39275;BME280;24980;48.874;2.332;2023-05-07T02:23:39;100993.13;;;25.58;48.12
39275;BME280;24980;48.874;2.332;2023-05-07T02:26:10;100994.44;;;25.59;48.11
39275;BME280;24980;48.874;2.332;2023-05-07T02:28:39;100993.93;;;25.59;48.11
39275;BME280;24980;48.874;2.332;2023-05-07T02:31:09;100990.70;;;25.60;48.11
39275;BME280;24980;48.874;2.332;2023-05-07T02:33:39;100991.39;;;25.59;48.10
39275;BME280;24980;48.874;2.332;2023-05-07T02:36:10;100995.36;;;25.60;48.10
39275;BME280;24980;48.874;2.332;2023-05-07T02:38:52;100996.65;;;25.59;48.10
39275;BME280;24980;48.874;2.332;2023-05-07T02:41:13;101000.63;;;25.60;48.09
39275;BME280;24980;48.874;2.332;2023-05-07T02:43:40;101003.25;;;25.60;48.09
39275;BME280;24980;48.874;2.332;2023-05-07T02:46:11;101006.82;;;25.60;48.09
39275;BME280;24980;48.874;2.332;2023-05-07T02:48:43;101008.70;;;25.60;48.08
39275;BME280;24980;48.874;2.332;2023-05-07T02:51:11;101008.61;;;25.60;48.08
39275;BME280;24980;48.874;2.332;2023-05-07T02:53:41;101006.91;;;25.60;48.08
39275;BME280;24980;48.874;2.332;2023-05-07T02:56:11;101005.73;;;25.60;48.08
39275;BME280;24980;48.874;2.332;2023-05-07T02:58:42;101004.62;;;25.60;48.08
39275;BME280;24980;48.874;2.332;2023-05-07T03:01:12;101001.23;;;25.59;48.08
39275;BME280;24980;48.874;2.332;2023-05-07T03:03:42;101003.18;;;25.60;48.08
39275;BME280;24980;48.874;2.332;2023-05-07T03:06:12;101007.77;;;25.59;48.09
39275;BME280;24980;48.874;2.332;2023-05-07T03:08:42;101003.01;;;25.60;48.10
39275;BME280;24980;48.874;2.332;2023-05-07T03:13:42;100999.78;;;25.60;48.11
39275;BME280;24980;48.874;2.332;2023-05-07T03:16:12;101004.45;;;25.60;48.10
39275;BME280;24980;48.874;2.332;2023-05-07T03:18:42;101004.45;;;25.59;48.09
39275;BME280;24980;48.874;2.332;2023-05-07T03:21:12;101004.12;;;25.59;48.08
39275;BME280;24980;48.874;2.332;2023-05-07T03:23:42;101004.33;;;25.59;48.07
39275;BME280;24980;48.874;2.332;2023-05-07T03:26:12;101002.68;;;25.59;48.07
39275;BME280;24980;48.874;2.332;2023-05-07T03:28:42;100998.27;;;25.59;48.04
39275;BME280;24980;48.874;2.332;2023-05-07T03:31:12;100991.61;;;25.58;48.03
39275;BME280;24980;48.874;2.332;2023-05-07T03:33:56;100989.41;;;25.58;48.04
39275;BME280;24980;48.874;2.332;2023-05-07T03:36:12;100992.55;;;25.58;48.03
39275;BME280;24980;48.874;2.332;2023-05-07T03:38:43;100993.23;;;25.58;48.04
39275;BME280;24980;48.874;2.332;2023-05-07T03:41:13;100997.89;;;25.58;48.03
39275;BME280;24980;48.874;2.332;2023-05-07T03:43:47;100996.63;;;25.57;48.03
39275;BME280;24980;48.874;2.332;2023-05-07T03:46:17;100996.47;;;25.57;48.03
39275;BME280;24980;48.874;2.332;2023-05-07T03:48:44;101006.66;;;25.56;48.02
39275;BME280;24980;48.874;2.332;2023-05-07T03:51:15;101007.89;;;25.56;48.03
39275;BME280;24980;48.874;2.332;2023-05-07T03:53:45;101010.62;;;25.55;48.02
39275;BME280;24980;48.874;2.332;2023-05-07T03:56:15;101011.13;;;25.55;48.02
39275;BME280;24980;48.874;2.332;2023-05-07T03:58:45;101022.17;;;25.54;48.01
39275;BME280;24980;48.874;2.332;2023-05-07T04:01:17;101025.59;;;25.53;48.00
39275;BME280;24980;48.874;2.332;2023-05-07T04:03:45;101022.62;;;25.53;48.00
39275;BME280;24980;48.874;2.332;2023-05-07T04:06:16;101012.66;;;25.52;48.04
39275;BME280;24980;48.874;2.332;2023-05-07T04:08:46;101006.81;;;25.51;48.07
39275;BME280;24980;48.874;2.332;2023-05-07T04:11:16;101008.85;;;25.51;48.10
39275;BME280;24980;48.874;2.332;2023-05-07T04:13:50;101001.80;;;25.51;48.12
39275;BME280;24980;48.874;2.332;2023-05-07T04:16:17;101007.08;;;25.50;48.12
39275;BME280;24980;48.874;2.332;2023-05-07T04:18:47;101007.01;;;25.49;48.11
39275;BME280;24980;48.874;2.332;2023-05-07T04:21:18;101010.56;;;25.50;48.09
39275;BME280;24980;48.874;2.332;2023-05-07T04:23:48;101017.81;;;25.49;48.08
39275;BME280;24980;48.874;2.332;2023-05-07T04:26:17;101020.26;;;25.49;48.06
39275;BME280;24980;48.874;2.332;2023-05-07T04:28:47;101024.25;;;25.48;48.04
39275;BME280;24980;48.874;2.332;2023-05-07T04:31:20;101025.27;;;25.48;48.03
39275;BME280;24980;48.874;2.332;2023-05-07T04:33:48;101028.25;;;25.48;48.01
39275;BME280;24980;48.874;2.332;2023-05-07T04:36:18;101028.17;;;25.47;48.00
39275;BME280;24980;48.874;2.332;2023-05-07T04:38:48;101027.23;;;25.47;48.00
39275;BME280;24980;48.874;2.332;2023-05-07T04:41:19;101028.66;;;25.46;47.99
39275;BME280;24980;48.874;2.332;2023-05-07T04:43:49;101032.06;;;25.44;47.98
39275;BME280;24980;48.874;2.332;2023-05-07T04:46:19;101038.42;;;25.45;47.97
39275;BME280;24980;48.874;2.332;2023-05-07T04:48:49;101044.02;;;25.45;47.97
39275;BME280;24980;48.874;2.332;2023-05-07T04:51:19;101048.11;;;25.44;47.96
39275;BME280;24980;48.874;2.332;2023-05-07T04:53:49;101050.84;;;25.43;47.96
39275;BME280;24980;48.874;2.332;2023-05-07T04:56:19;101049.73;;;25.43;47.96
39275;BME280;24980;48.874;2.332;2023-05-07T04:58:49;101056.69;;;25.43;47.95
39275;BME280;24980;48.874;2.332;2023-05-07T05:01:20;101053.01;;;25.42;47.96
39275;BME280;24980;48.874;2.332;2023-05-07T05:03:50;101054.62;;;25.42;47.97
39275;BME280;24980;48.874;2.332;2023-05-07T05:06:20;101054.38;;;25.41;47.97
39275;BME280;24980;48.874;2.332;2023-05-07T05:08:50;101053.97;;;25.40;47.97
39275;BME280;24980;48.874;2.332;2023-05-07T05:11:22;101053.67;;;25.39;47.97
39275;BME280;24980;48.874;2.332;2023-05-07T05:13:51;101051.05;;;25.38;47.97
39275;BME280;24980;48.874;2.332;2023-05-07T05:16:21;101054.87;;;25.39;47.97
39275;BME280;24980;48.874;2.332;2023-05-07T05:18:51;101055.47;;;25.38;47.97
39275;BME280;24980;48.874;2.332;2023-05-07T05:21:23;101060.41;;;25.37;47.97
39275;BME280;24980;48.874;2.332;2023-05-07T05:23:54;101058.16;;;25.36;47.96
39275;BME280;24980;48.874;2.332;2023-05-07T05:26:23;101064.53;;;25.36;47.96
39275;BME280;24980;48.874;2.332;2023-05-07T05:28:53;101070.22;;;25.35;47.96
39275;BME280;24980;48.874;2.332;2023-05-07T05:31:24;101070.81;;;25.35;47.96
39275;BME280;24980;48.874;2.332;2023-05-07T05:33:53;101072.70;;;25.34;47.95
39275;BME280;24980;48.874;2.332;2023-05-07T05:36:23;101072.78;;;25.34;47.95
39275;BME280;24980;48.874;2.332;2023-05-07T05:38:55;101068.30;;;25.33;47.95
39275;BME280;24980;48.874;2.332;2023-05-07T05:41:24;101068.93;;;25.33;47.96
39275;BME280;24980;48.874;2.332;2023-05-07T05:43:54;101073.26;;;25.33;47.95
39275;BME280;24980;48.874;2.332;2023-05-07T05:46:24;101075.47;;;25.33;47.95
39275;BME280;24980;48.874;2.332;2023-05-07T05:48:54;101080.91;;;25.32;47.95
39275;BME280;24980;48.874;2.332;2023-05-07T05:51:24;101080.91;;;25.32;47.95
39275;BME280;24980;48.874;2.332;2023-05-07T05:53:55;101084.64;;;25.32;47.95
39275;BME280;24980;48.874;2.332;2023-05-07T05:56:25;101082.86;;;25.32;47.95
39275;BME280;24980;48.874;2.332;2023-05-07T05:58:55;101083.55;;;25.32;47.96
39275;BME280;24980;48.874;2.332;2023-05-07T06:01:26;101088.80;;;25.32;47.96
39275;BME280;24980;48.874;2.332;2023-05-07T06:03:56;101086.17;;;25.31;47.96
39275;BME280;24980;48.874;2.332;2023-05-07T06:06:26;101090.42;;;25.31;47.95
39275;BME280;24980;48.874;2.332;2023-05-07T06:08:56;101090.94;;;25.31;47.97
39275;BME280;24980;48.874;2.332;2023-05-07T06:11:27;101089.75;;;25.30;47.97
39275;BME280;24980;48.874;2.332;2023-05-07T06:13:57;101092.89;;;25.31;47.97
39275;BME280;24980;48.874;2.332;2023-05-07T06:16:27;101095.39;;;25.30;47.98
39275;BME280;24980;48.874;2.332;2023-05-07T06:18:57;101099.52;;;25.30;47.98
39275;BME280;24980;48.874;2.332;2023-05-07T06:21:28;101100.53;;;25.30;47.99
39275;BME280;24980;48.874;2.332;2023-05-07T06:24:00;101101.50;;;25.30;48.01
39275;BME280;24980;48.874;2.332;2023-05-07T06:26:29;101100.83;;;25.29;48.01
39275;BME280;24980;48.874;2.332;2023-05-07T06:28:59;101099.91;;;25.29;48.02
39275;BME280;24980;48.874;2.332;2023-05-07T06:31:30;101102.54;;;25.28;48.03
39275;BME280;24980;48.874;2.332;2023-05-07T06:33:59;101101.18;;;25.28;48.05
39275;BME280;24980;48.874;2.332;2023-05-07T06:36:29;101098.98;;;25.28;48.06
39275;BME280;24980;48.874;2.332;2023-05-07T06:39:00;101103.66;;;25.28;48.07
39275;BME280;24980;48.874;2.332;2023-05-07T06:41:30;101102.59;;;25.27;48.07
39275;BME280;24980;48.874;2.332;2023-05-07T06:44:00;101111.58;;;25.27;48.07
39275;BME280;24980;48.874;2.332;2023-05-07T06:46:30;101105.31;;;25.26;48.08
39275;BME280;24980;48.874;2.332;2023-05-07T06:49:00;101107.44;;;25.26;48.08
39275;BME280;24980;48.874;2.332;2023-05-07T06:51:30;101109.39;;;25.26;48.10
39275;BME280;24980;48.874;2.332;2023-05-07T06:54:01;101111.00;;;25.26;48.10
39275;BME280;24980;48.874;2.332;2023-05-07T06:56:31;101112.11;;;25.26;48.11
39275;BME280;24980;48.874;2.332;2023-05-07T06:59:02;101112.37;;;25.25;48.12
39275;BME280;24980;48.874;2.332;2023-05-07T07:01:32;101116.02;;;25.25;48.12
39275;BME280;24980;48.874;2.332;2023-05-07T07:04:02;101117.64;;;25.24;48.12
39275;BME280;24980;48.874;2.332;2023-05-07T07:06:32;101117.73;;;25.24;48.12
39275;BME280;24980;48.874;2.332;2023-05-07T07:09:04;101121.59;;;25.24;48.11
39275;BME280;24980;48.874;2.332;2023-05-07T07:11:33;101122.53;;;25.23;48.11
39275;BME280;24980;48.874;2.332;2023-05-07T07:14:05;101127.11;;;25.23;48.10
39275;BME280;24980;48.874;2.332;2023-05-07T07:16:35;101123.98;;;25.22;48.09
39275;BME280;24980;48.874;2.332;2023-05-07T07:19:05;101133.41;;;25.21;48.09
39275;BME280;24980;48.874;2.332;2023-05-07T07:21:38;101133.16;;;25.21;48.11
39275;BME280;24980;48.874;2.332;2023-05-07T07:24:06;101133.97;;;25.19;48.11
39275;BME280;24980;48.874;2.332;2023-05-07T07:26:36;101135.94;;;25.18;48.11
39275;BME280;24980;48.874;2.332;2023-05-07T07:29:06;101144.94;;;25.17;48.12
39275;BME280;24980;48.874;2.332;2023-05-07T07:31:38;101142.44;;;25.16;48.12
39275;BME280;24980;48.874;2.332;2023-05-07T07:34:07;101143.22;;;25.15;48.14
39275;BME280;24980;48.874;2.332;2023-05-07T07:36:40;101143.81;;;25.14;48.13
39275;BME280;24980;48.874;2.332;2023-05-07T07:39:08;101146.83;;;25.14;48.13
39275;BME280;24980;48.874;2.332;2023-05-07T07:41:38;101152.18;;;25.13;48.14
39275;BME280;24980;48.874;2.332;2023-05-07T07:44:08;101150.34;;;25.11;48.14
39275;BME280;24980;48.874;2.332;2023-05-07T07:46:38;101159.88;;;25.10;48.14
39275;BME280;24980;48.874;2.332;2023-05-07T07:49:09;101157.43;;;25.09;48.15
39275;BME280;24980;48.874;2.332;2023-05-07T07:51:39;101157.86;;;25.08;48.16
39275;BME280;24980;48.874;2.332;2023-05-07T07:54:09;101155.28;;;25.07;48.16
39275;BME280;24980;48.874;2.332;2023-05-07T07:56:39;101157.57;;;25.07;48.17
39275;BME280;24980;48.874;2.332;2023-05-07T07:59:09;101159.38;;;25.05;48.18
39275;BME280;24980;48.874;2.332;2023-05-07T08:01:39;101156.58;;;25.04;48.18
39275;BME280;24980;48.874;2.332;2023-05-07T08:04:11;101159.77;;;25.03;48.19
39275;BME280;24980;48.874;2.332;2023-05-07T08:06:40;101162.15;;;25.03;48.20
39275;BME280;24980;48.874;2.332;2023-05-07T08:09:10;101158.77;;;25.02;48.22
39275;BME280;24980;48.874;2.332;2023-05-07T08:11:41;101159.36;;;25.02;48.24
39275;BME280;24980;48.874;2.332;2023-05-07T08:14:11;101158.76;;;25.02;48.24
39275;BME280;24980;48.874;2.332;2023-05-07T08:16:43;101164.77;;;25.03;48.26
39275;BME280;24980;48.874;2.332;2023-05-07T08:19:12;101168.77;;;25.02;48.32
39275;BME280;24980;48.874;2.332;2023-05-07T08:21:42;101178.20;;;25.06;48.34
39275;BME280;24980;48.874;2.332;2023-05-07T08:24:12;101179.30;;;25.06;48.36
39275;BME280;24980;48.874;2.332;2023-05-07T08:26:43;101182.19;;;25.05;48.40
39275;BME280;24980;48.874;2.332;2023-05-07T08:29:14;101178.76;;;25.04;48.48
39275;BME280;24980;48.874;2.332;2023-05-07T08:31:43;101183.60;;;25.03;48.54
39275;BME280;24980;48.874;2.332;2023-05-07T08:34:14;101184.45;;;25.02;48.59
39275;BME280;24980;48.874;2.332;2023-05-07T08:36:44;101181.96;;;25.01;48.64
39275;BME280;24980;48.874;2.332;2023-05-07T08:39:17;101185.11;;;25.00;48.69
39275;BME280;24980;48.874;2.332;2023-05-07T08:41:49;101185.19;;;25.00;48.77
39275;BME280;24980;48.874;2.332;2023-05-07T08:44:20;101189.20;;;25.03;48.81
39275;BME280;24980;48.874;2.332;2023-05-07T08:46:52;101188.30;;;25.05;48.84
39275;BME280;24980;48.874;2.332;2023-05-07T08:49:17;101189.02;;;25.04;48.89
39275;BME280;24980;48.874;2.332;2023-05-07T08:51:47;101192.93;;;25.03;48.94
39275;BME280;24980;48.874;2.332;2023-05-07T08:54:18;101194.25;;;25.01;48.96
39275;BME280;24980;48.874;2.332;2023-05-07T08:56:48;101194.09;;;25.00;48.97
39275;BME280;24980;48.874;2.332;2023-05-07T08:59:18;101191.91;;;24.99;48.98
39275;BME280;24980;48.874;2.332;2023-05-07T09:01:49;101195.68;;;24.98;48.98
39275;BME280;24980;48.874;2.332;2023-05-07T09:04:19;101196.70;;;24.97;48.97
39275;BME280;24980;48.874;2.332;2023-05-07T09:06:49;101198.93;;;24.95;48.98
39275;BME280;24980;48.874;2.332;2023-05-07T09:09:21;101200.49;;;24.95;48.97
39275;BME280;24980;48.874;2.332;2023-05-07T09:11:58;101198.30;;;24.94;48.98
39275;BME280;24980;48.874;2.332;2023-05-07T09:14:21;101200.34;;;24.92;48.95
39275;BME280;24980;48.874;2.332;2023-05-07T09:16:52;101194.46;;;24.90;48.95
39275;BME280;24980;48.874;2.332;2023-05-07T09:19:24;101199.56;;;24.88;48.96
39275;BME280;24980;48.874;2.332;2023-05-07T09:22:00;101198.92;;;24.88;48.96
39275;BME280;24980;48.874;2.332;2023-05-07T09:24:22;101200.04;;;24.87;48.96
39275;BME280;24980;48.874;2.332;2023-05-07T09:26:53;101198.69;;;24.86;48.98
39275;BME280;24980;48.874;2.332;2023-05-07T09:29:23;101196.49;;;24.85;48.99
39275;BME280;24980;48.874;2.332;2023-05-07T09:31:54;101199.33;;;24.84;49.02
39275;BME280;24980;48.874;2.332;2023-05-07T09:34:24;101198.49;;;24.83;49.04
39275;BME280;24980;48.874;2.332;2023-05-07T09:36:58;101200.95;;;24.83;49.04
39275;BME280;24980;48.874;2.332;2023-05-07T09:39:26;101203.20;;;24.82;49.05
39275;BME280;24980;48.874;2.332;2023-05-07T09:41:56;101197.94;;;24.79;49.05
39275;BME280;24980;48.874;2.332;2023-05-07T09:44:27;101199.47;;;24.79;49.05
39275;BME280;24980;48.874;2.332;2023-05-07T09:47:00;101201.72;;;24.78;49.05
39275;BME280;24980;48.874;2.332;2023-05-07T09:49:29;101201.55;;;24.77;49.05
39275;BME280;24980;48.874;2.332;2023-05-07T09:52:01;101202.31;;;24.78;49.03
39275;BME280;24980;48.874;2.332;2023-05-07T09:54:29;101205.39;;;24.81;48.96
39275;BME280;24980;48.874;2.332;2023-05-07T09:56:59;101206.55;;;24.83;48.93
39275;BME280;24980;48.874;2.332;2023-05-07T09:59:31;101205.62;;;24.83;48.92
39275;BME280;24980;48.874;2.332;2023-05-07T10:02:01;101204.28;;;24.81;48.94
39275;BME280;24980;48.874;2.332;2023-05-07T10:04:33;101203.28;;;24.79;48.95
39275;BME280;24980;48.874;2.332;2023-05-07T10:07:01;101202.89;;;24.79;48.97
39275;BME280;24980;48.874;2.332;2023-05-07T10:09:35;101203.12;;;24.79;49.00
39275;BME280;24980;48.874;2.332;2023-05-07T10:12:01;101206.31;;;24.81;48.96
39275;BME280;24980;48.874;2.332;2023-05-07T10:14:32;101207.75;;;24.87;48.95
39275;BME280;24980;48.874;2.332;2023-05-07T10:17:03;101206.54;;;24.92;48.96
39275;BME280;24980;48.874;2.332;2023-05-07T10:19:34;101209.16;;;24.92;48.99
39275;BME280;24980;48.874;2.332;2023-05-07T10:22:05;101210.74;;;24.90;49.03
39275;BME280;24980;48.874;2.332;2023-05-07T10:24:36;101212.50;;;24.87;49.08
39275;BME280;24980;48.874;2.332;2023-05-07T10:27:09;101208.31;;;24.85;49.12
39275;BME280;24980;48.874;2.332;2023-05-07T10:30:00;101210.62;;;24.83;49.13
39275;BME280;24980;48.874;2.332;2023-05-07T10:34:40;101212.11;;;24.79;49.16
39275;BME280;24980;48.874;2.332;2023-05-07T10:37:08;101213.25;;;24.78;49.17
39275;BME280;24980;48.874;2.332;2023-05-07T10:39:38;101214.36;;;24.76;49.18
39275;BME280;24980;48.874;2.332;2023-05-07T10:42:08;101218.34;;;24.77;49.20
39275;BME280;24980;48.874;2.332;2023-05-07T10:44:38;101216.02;;;24.75;49.21
39275;BME280;24980;48.874;2.332;2023-05-07T10:47:10;101218.65;;;24.75;49.23
39275;BME280;24980;48.874;2.332;2023-05-07T10:52:20;101222.73;;;24.73;49.26
39275;BME280;24980;48.874;2.332;2023-05-07T10:54:43;101222.91;;;24.72;49.25
39275;BME280;24980;48.874;2.332;2023-05-07T10:57:35;101221.59;;;24.72;49.26
39275;BME280;24980;48.874;2.332;2023-05-07T10:59:41;101227.02;;;24.72;49.26
39275;BME280;24980;48.874;2.332;2023-05-07T11:02:12;101226.17;;;24.71;49.30
39275;BME280;24980;48.874;2.332;2023-05-07T11:04:42;101224.06;;;24.71;49.35
39275;BME280;24980;48.874;2.332;2023-05-07T11:07:23;101227.11;;;24.70;49.39
39275;BME280;24980;48.874;2.332;2023-05-07T11:09:56;101223.69;;;24.69;49.44
39275;BME280;24980;48.874;2.332;2023-05-07T11:12:13;101226.66;;;24.69;49.48
39275;BME280;24980;48.874;2.332;2023-05-07T11:14:44;101226.41;;;24.68;49.50
39275;BME280;24980;48.874;2.332;2023-05-07T11:17:14;101229.80;;;24.68;49.50
39275;BME280;24980;48.874;2.332;2023-05-07T11:19:54;101229.72;;;24.68;49.51
39275;BME280;24980;48.874;2.332;2023-05-07T11:22:37;101228.96;;;24.66;49.50
39275;BME280;24980;48.874;2.332;2023-05-07T11:24:44;101226.54;;;24.65;49.50
39275;BME280;24980;48.874;2.332;2023-05-07T11:27:23;101231.04;;;24.65;49.50
39275;BME280;24980;48.874;2.332;2023-05-07T11:29:50;101231.14;;;24.63;49.50
39275;BME280;24980;48.874;2.332;2023-05-07T11:32:16;101234.28;;;24.63;49.51
39275;BME280;24980;48.874;2.332;2023-05-07T11:34:47;101232.45;;;24.62;49.52
39275;BME280;24980;48.874;2.332;2023-05-07T11:37:19;101234.08;;;24.60;49.51
39275;BME280;24980;48.874;2.332;2023-05-07T11:39:47;101237.05;;;24.60;49.54
39275;BME280;24980;48.874;2.332;2023-05-07T11:42:32;101236.50;;;24.58;49.56
39275;BME280;24980;48.874;2.332;2023-05-07T11:44:48;101236.07;;;24.59;49.56
39275;BME280;24980;48.874;2.332;2023-05-07T11:47:20;101235.65;;;24.58;49.57
39275;BME280;24980;48.874;2.332;2023-05-07T11:49:51;101237.86;;;24.58;49.60
39275;BME280;24980;48.874;2.332;2023-05-07T11:52:21;101232.19;;;24.57;49.61
39275;BME280;24980;48.874;2.332;2023-05-07T11:54:52;101235.83;;;24.56;49.63
39275;BME280;24980;48.874;2.332;2023-05-07T11:57:27;101239.39;;;24.56;49.63
39275;BME280;24980;48.874;2.332;2023-05-07T11:59:55;101240.88;;;24.55;49.64
39275;BME280;24980;48.874;2.332;2023-05-07T12:02:23;101238.77;;;24.54;49.64
39275;BME280;24980;48.874;2.332;2023-05-07T12:04:55;101242.16;;;24.54;49.65
39275;BME280;24980;48.874;2.332;2023-05-07T12:07:26;101242.92;;;24.54;49.67
39275;BME280;24980;48.874;2.332;2023-05-07T12:09:54;101242.24;;;24.54;49.68
39275;BME280;24980;48.874;2.332;2023-05-07T12:12:24;101240.80;;;24.53;49.69
39275;BME280;24980;48.874;2.332;2023-05-07T12:14:55;101238.64;;;24.53;49.70
39275;BME280;24980;48.874;2.332;2023-05-07T12:17:25;101238.31;;;24.52;49.71
39275;BME280;24980;48.874;2.332;2023-05-07T12:19:56;101242.38;;;24.51;49.73
39275;BME280;24980;48.874;2.332;2023-05-07T12:22:28;101239.34;;;24.50;49.74
39275;BME280;24980;48.874;2.332;2023-05-07T12:24:59;101247.64;;;24.50;49.75
39275;BME280;24980;48.874;2.332;2023-05-07T12:27:26;101253.02;;;24.49;49.76
39275;BME280;24980;48.874;2.332;2023-05-07T12:29:57;101256.67;;;24.48;49.78
39275;BME280;24980;48.874;2.332;2023-05-07T12:32:28;101252.78;;;24.47;49.79
39275;BME280;24980;48.874;2.332;2023-05-07T12:34:58;101251.72;;;24.47;49.81
39275;BME280;24980;48.874;2.332;2023-05-07T12:37:33;101254.09;;;24.46;49.83
39275;BME280;24980;48.874;2.332;2023-05-07T12:40:05;101257.16;;;24.45;49.84
39275;BME280;24980;48.874;2.332;2023-05-07T12:42:33;101265.20;;;24.44;49.85
39275;BME280;24980;48.874;2.332;2023-05-07T12:45:00;101269.44;;;24.44;49.87
39275;BME280;24980;48.874;2.332;2023-05-07T12:47:29;101265.50;;;24.43;49.88
39275;BME280;24980;48.874;2.332;2023-05-07T12:50:00;101260.94;;;24.42;49.89
39275;BME280;24980;48.874;2.332;2023-05-07T12:52:32;101265.59;;;24.42;49.91
39275;BME280;24980;48.874;2.332;2023-05-07T12:55:06;101269.16;;;24.41;49.92
39275;BME280;24980;48.874;2.332;2023-05-07T12:57:40;101268.65;;;24.41;49.92
39275;BME280;24980;48.874;2.332;2023-05-07T13:00:04;101268.86;;;24.40;49.92
39275;BME280;24980;48.874;2.332;2023-05-07T13:02:33;101270.13;;;24.39;49.93
39275;BME280;24980;48.874;2.332;2023-05-07T13:05:03;101277.67;;;24.40;49.93
39275;BME280;24980;48.874;2.332;2023-05-07T13:07:36;101278.77;;;24.39;49.93
39275;BME280;24980;48.874;2.332;2023-05-07T13:10:05;101271.58;;;24.39;49.93
39275;BME280;24980;48.874;2.332;2023-05-07T13:12:35;101276.67;;;24.38;49.92
39275;BME280;24980;48.874;2.332;2023-05-07T13:15:06;101278.95;;;24.38;49.93